sensor_id;sensor_type;location;lat;lon;timestamp;temperature;humidity
22607;DHT22;11470;20.968;105.834;2023-04-01T00:03:27;20.20;99.90
22607;DHT22;11470;20.968;105.834;2023-04-01T00:08:34;20.20;99.90
22607;DHT22;11470;20.968;105.834;2023-04-01T00:13:40;20.30;99.90
22607;DHT22;11470;20.968;105.834;2023-04-01T00:18:45;20.30;99.90
22607;DHT22;11470;20.968;105.834;2023-04-01T00:23:52;20.40;99.90
22607;DHT22;11470;20.968;105.834;2023-04-01T00:28:58;20.40;99.90
22607;DHT22;11470;20.968;105.834;2023-04-01T00:34:05;20.40;99.90
22607;DHT22;11470;20.968;105.834;2023-04-01T00:39:11;20.40;99.90
22607;DHT22;11470;20.968;105.834;2023-04-01T00:44:25;20.40;99.90
22607;DHT22;11470;20.968;105.834;2023-04-01T00:49:33;20.50;99.90
22607;DHT22;11470;20.968;105.834;2023-04-01T00:54:42;20.50;99.90
22607;DHT22;11470;20.968;105.834;2023-04-01T00:59:52;20.50;99.90
22607;DHT22;11470;20.968;105.834;2023-04-01T01:05:17;20.50;99.90
22607;DHT22;11470;20.968;105.834;2023-04-01T01:10:39;20.60;99.90
22607;DHT22;11470;20.968;105.834;2023-04-01T01:16:06;20.60;99.90
22607;DHT22;11470;20.968;105.834;2023-04-01T01:27:10;20.50;99.90
22607;DHT22;11470;20.968;105.834;2023-04-01T01:37:56;20.60;99.90
22607;DHT22;11470;20.968;105.834;2023-04-01T01:43:08;20.60;99.90
22607;DHT22;11470;20.968;105.834;2023-04-01T01:48:17;20.60;99.90
22607;DHT22;11470;20.968;105.834;2023-04-01T01:53:23;20.70;99.90
22607;DHT22;11470;20.968;105.834;2023-04-01T01:58:41;20.70;99.90
22607;DHT22;11470;20.968;105.834;2023-04-01T02:03:52;20.80;99.90
22607;DHT22;11470;20.968;105.834;2023-04-01T02:09:01;20.80;99.90
22607;DHT22;11470;20.968;105.834;2023-04-01T02:14:15;20.80;99.90
22607;DHT22;11470;20.968;105.834;2023-04-01T02:19:26;20.80;99.90
22607;DHT22;11470;20.968;105.834;2023-04-01T02:24:36;20.90;99.90
22607;DHT22;11470;20.968;105.834;2023-04-01T02:29:44;20.90;99.90
22607;DHT22;11470;20.968;105.834;2023-04-01T02:34:51;21.10;99.90
22607;DHT22;11470;20.968;105.834;2023-04-01T02:40:00;21.30;99.90
22607;DHT22;11470;20.968;105.834;2023-04-01T02:45:07;21.40;99.90
22607;DHT22;11470;20.968;105.834;2023-04-01T02:50:22;21.50;99.90
22607;DHT22;11470;20.968;105.834;2023-04-01T03:02:20;21.30;99.90
22607;DHT22;11470;20.968;105.834;2023-04-01T03:07:28;21.20;99.90
22607;DHT22;11470;20.968;105.834;2023-04-01T03:12:38;21.20;99.90
22607;DHT22;11470;20.968;105.834;2023-04-01T03:17:48;21.20;99.90
22607;DHT22;11470;20.968;105.834;2023-04-01T03:22:55;21.30;99.90
22607;DHT22;11470;20.968;105.834;2023-04-01T03:28:03;21.50;99.90
22607;DHT22;11470;20.968;105.834;2023-04-01T03:33:10;21.60;99.90
22607;DHT22;11470;20.968;105.834;2023-04-01T03:38:20;21.70;99.90
22607;DHT22;11470;20.968;105.834;2023-04-01T03:43:26;21.90;99.90
22607;DHT22;11470;20.968;105.834;2023-04-01T03:49:08;22.00;99.90
22607;DHT22;11470;20.968;105.834;2023-04-01T03:54:17;21.90;99.90
22607;DHT22;11470;20.968;105.834;2023-04-01T03:59:25;21.90;99.90
22607;DHT22;11470;20.968;105.834;2023-04-01T04:04:31;22.10;99.90
22607;DHT22;11470;20.968;105.834;2023-04-01T04:09:39;22.40;99.90
22607;DHT22;11470;20.968;105.834;2023-04-01T04:14:45;22.60;99.90
22607;DHT22;11470;20.968;105.834;2023-04-01T04:19:56;22.60;99.90
22607;DHT22;11470;20.968;105.834;2023-04-01T04:25:03;22.40;99.90
22607;DHT22;11470;20.968;105.834;2023-04-01T04:30:11;22.50;99.90
22607;DHT22;11470;20.968;105.834;2023-04-01T04:35:18;22.50;99.90
22607;DHT22;11470;20.968;105.834;2023-04-01T04:40:25;22.50;99.90
22607;DHT22;11470;20.968;105.834;2023-04-01T04:45:31;22.50;99.90
22607;DHT22;11470;20.968;105.834;2023-04-01T04:50:40;22.50;99.90
22607;DHT22;11470;20.968;105.834;2023-04-01T04:55:50;22.60;99.90
22607;DHT22;11470;20.968;105.834;2023-04-01T05:01:28;22.60;99.90
22607;DHT22;11470;20.968;105.834;2023-04-01T05:06:36;22.70;99.90
22607;DHT22;11470;20.968;105.834;2023-04-01T05:11:42;23.00;99.90
22607;DHT22;11470;20.968;105.834;2023-04-01T05:16:50;22.90;99.90
22607;DHT22;11470;20.968;105.834;2023-04-01T05:21:56;22.60;99.90
22607;DHT22;11470;20.968;105.834;2023-04-01T05:27:05;22.60;99.90
22607;DHT22;11470;20.968;105.834;2023-04-01T05:32:15;22.80;99.90
22607;DHT22;11470;20.968;105.834;2023-04-01T05:37:23;23.00;99.90
22607;DHT22;11470;20.968;105.834;2023-04-01T05:42:29;23.00;99.90
22607;DHT22;11470;20.968;105.834;2023-04-01T05:47:38;22.90;99.90
22607;DHT22;11470;20.968;105.834;2023-04-01T05:52:44;22.80;99.90
22607;DHT22;11470;20.968;105.834;2023-04-01T05:57:54;22.80;99.90
22607;DHT22;11470;20.968;105.834;2023-04-01T06:03:03;22.70;99.90
22607;DHT22;11470;20.968;105.834;2023-04-01T06:08:21;22.40;99.90
22607;DHT22;11470;20.968;105.834;2023-04-01T06:13:47;22.40;99.90
22607;DHT22;11470;20.968;105.834;2023-04-01T06:19:22;22.60;99.90
22607;DHT22;11470;20.968;105.834;2023-04-01T06:25:12;22.60;99.90
22607;DHT22;11470;20.968;105.834;2023-04-01T06:30:46;22.60;99.90
22607;DHT22;11470;20.968;105.834;2023-04-01T06:42:08;22.80;99.90
22607;DHT22;11470;20.968;105.834;2023-04-01T06:53:21;22.80;99.90
22607;DHT22;11470;20.968;105.834;2023-04-01T06:59:21;22.80;99.90
22607;DHT22;11470;20.968;105.834;2023-04-01T07:04:48;22.70;99.90
22607;DHT22;11470;20.968;105.834;2023-04-01T07:10:48;22.90;99.90
22607;DHT22;11470;20.968;105.834;2023-04-01T07:16:34;23.10;99.90
22607;DHT22;11470;20.968;105.834;2023-04-01T07:22:27;23.20;99.90
22607;DHT22;11470;20.968;105.834;2023-04-01T07:27:40;23.30;99.90
22607;DHT22;11470;20.968;105.834;2023-04-01T07:33:22;23.20;99.90
22607;DHT22;11470;20.968;105.834;2023-04-01T07:44:20;23.60;99.90
22607;DHT22;11470;20.968;105.834;2023-04-01T08:00:49;23.70;99.90
22607;DHT22;11470;20.968;105.834;2023-04-01T08:12:06;23.20;99.90
22607;DHT22;11470;20.968;105.834;2023-04-01T08:28:37;22.80;99.90
22607;DHT22;11470;20.968;105.834;2023-04-01T08:33:47;22.70;99.90
22607;DHT22;11470;20.968;105.834;2023-04-01T08:39:18;22.80;99.90
22607;DHT22;11470;20.968;105.834;2023-04-01T08:56:12;22.80;99.90
22607;DHT22;11470;20.968;105.834;2023-04-01T09:35:38;22.50;99.90
22607;DHT22;11470;20.968;105.834;2023-04-01T09:45:50;22.40;99.90
22607;DHT22;11470;20.968;105.834;2023-04-01T09:57:03;22.40;99.90
22607;DHT22;11470;20.968;105.834;2023-04-01T10:30:35;22.20;99.90
22607;DHT22;11470;20.968;105.834;2023-04-01T10:41:24;22.10;99.90
22607;DHT22;11470;20.968;105.834;2023-04-01T11:04:28;21.80;99.90
22607;DHT22;11470;20.968;105.834;2023-04-01T11:34:24;21.90;99.90
22607;DHT22;11470;20.968;105.834;2023-04-01T11:45:32;21.90;99.90
22607;DHT22;11470;20.968;105.834;2023-04-01T11:56:43;21.90;99.90
22607;DHT22;11470;20.968;105.834;2023-04-01T12:02:29;21.90;99.90
22607;DHT22;11470;20.968;105.834;2023-04-01T12:08:13;21.90;99.90
22607;DHT22;11470;20.968;105.834;2023-04-01T12:19:17;21.80;99.90
22607;DHT22;11470;20.968;105.834;2023-04-01T12:24:57;21.80;99.90
22607;DHT22;11470;20.968;105.834;2023-04-01T12:35:44;21.80;99.90
22607;DHT22;11470;20.968;105.834;2023-04-01T13:31:53;21.70;99.90
22607;DHT22;11470;20.968;105.834;2023-04-01T14:35:04;21.60;99.90
22607;DHT22;11470;20.968;105.834;2023-04-01T14:51:47;21.70;99.90
22607;DHT22;11470;20.968;105.834;2023-04-01T14:57:27;21.60;99.90
22607;DHT22;11470;20.968;105.834;2023-04-01T15:04:00;21.60;99.90
22607;DHT22;11470;20.968;105.834;2023-04-01T15:08:57;21.60;99.90
22607;DHT22;11470;20.968;105.834;2023-04-01T15:15:11;21.60;99.90
22607;DHT22;11470;20.968;105.834;2023-04-01T15:31:36;21.60;99.90
22607;DHT22;11470;20.968;105.834;2023-04-01T15:42:28;21.60;99.90
22607;DHT22;11470;20.968;105.834;2023-04-01T15:59:54;21.60;99.90
22607;DHT22;11470;20.968;105.834;2023-04-01T16:05:37;21.60;99.90
22607;DHT22;11470;20.968;105.834;2023-04-01T16:11:43;21.60;99.90
22607;DHT22;11470;20.968;105.834;2023-04-01T16:39:37;21.60;99.90
22607;DHT22;11470;20.968;105.834;2023-04-01T16:56:04;21.60;99.90
22607;DHT22;11470;20.968;105.834;2023-04-01T17:01:21;21.60;99.90
22607;DHT22;11470;20.968;105.834;2023-04-01T17:07:23;21.60;99.90
22607;DHT22;11470;20.968;105.834;2023-04-01T17:12:48;21.60;99.90
22607;DHT22;11470;20.968;105.834;2023-04-01T17:18:07;21.60;99.90
22607;DHT22;11470;20.968;105.834;2023-04-01T17:23:22;21.60;99.90
22607;DHT22;11470;20.968;105.834;2023-04-01T17:44:48;21.70;99.90
22607;DHT22;11470;20.968;105.834;2023-04-01T18:11:54;21.70;99.90
22607;DHT22;11470;20.968;105.834;2023-04-01T18:22:48;21.60;99.90
22607;DHT22;11470;20.968;105.834;2023-04-01T18:39:19;21.60;99.90
22607;DHT22;11470;20.968;105.834;2023-04-01T18:45:21;21.70;99.90
22607;DHT22;11470;20.968;105.834;2023-04-01T18:50:38;21.60;99.90
22607;DHT22;11470;20.968;105.834;2023-04-01T19:06:48;21.60;99.90
22607;DHT22;11470;20.968;105.834;2023-04-01T19:17:07;21.70;99.90
22607;DHT22;11470;20.968;105.834;2023-04-01T19:33:09;21.70;99.90
22607;DHT22;11470;20.968;105.834;2023-04-01T19:38:37;21.70;99.90
22607;DHT22;11470;20.968;105.834;2023-04-01T20:00:50;21.70;99.90
22607;DHT22;11470;20.968;105.834;2023-04-01T20:06:04;21.70;99.90
22607;DHT22;11470;20.968;105.834;2023-04-01T20:22:35;21.60;99.90
22607;DHT22;11470;20.968;105.834;2023-04-01T20:27:51;21.60;99.90
22607;DHT22;11470;20.968;105.834;2023-04-01T20:44:22;21.60;99.90
22607;DHT22;11470;20.968;105.834;2023-04-01T20:55:27;21.60;99.90
22607;DHT22;11470;20.968;105.834;2023-04-01T21:11:41;21.60;99.90
22607;DHT22;11470;20.968;105.834;2023-04-01T21:17:34;21.50;99.90
22607;DHT22;11470;20.968;105.834;2023-04-01T21:22:51;21.50;99.90
22607;DHT22;11470;20.968;105.834;2023-04-01T21:33:48;21.50;99.90
22607;DHT22;11470;20.968;105.834;2023-04-01T21:39:16;21.50;99.90
22607;DHT22;11470;20.968;105.834;2023-04-01T21:44:38;21.50;99.90
22607;DHT22;11470;20.968;105.834;2023-04-01T22:00:54;21.50;99.90
22607;DHT22;11470;20.968;105.834;2023-04-01T22:06:15;21.50;99.90
22607;DHT22;11470;20.968;105.834;2023-04-01T22:16:57;21.50;99.90
22607;DHT22;11470;20.968;105.834;2023-04-01T22:22:45;21.50;99.90
22607;DHT22;11470;20.968;105.834;2023-04-01T22:28:07;21.50;99.90
22607;DHT22;11470;20.968;105.834;2023-04-01T22:38:35;21.60;99.90
22607;DHT22;11470;20.968;105.834;2023-04-01T22:43:45;21.50;99.90
22607;DHT22;11470;20.968;105.834;2023-04-01T22:49:06;21.60;99.90
22607;DHT22;11470;20.968;105.834;2023-04-01T22:54:34;21.50;99.90
22607;DHT22;11470;20.968;105.834;2023-04-01T23:05:18;21.60;99.90
22607;DHT22;11470;20.968;105.834;2023-04-01T23:15:34;21.60;99.90
22607;DHT22;11470;20.968;105.834;2023-04-01T23:31:38;21.70;99.90
22607;DHT22;11470;20.968;105.834;2023-04-01T23:36:47;21.70;99.90
22607;DHT22;11470;20.968;105.834;2023-04-01T23:41:56;21.70;99.90
22607;DHT22;11470;20.968;105.834;2023-04-01T23:47:05;21.80;99.90
22607;DHT22;11470;20.968;105.834;2023-04-01T23:52:35;21.80;99.90
22607;DHT22;11470;20.968;105.834;2023-04-01T23:57:41;21.90;99.90
